BNR weather

Banfora Airport
Banfora, Comoe, Burkina Faso

Public forecast

Using degrees Celsius for public forecast. Weather courtesy of forecast.io.

Closest aviation weather report (METAR) to Banfora Airport

Closest report is Bobo Dioulasso Airport, 36.6 nm (67.8 km) NE. Retrieved 2019/10/17 14:00 UTC (44 minutes ago):

DFOO 171400Z 29004KT 230V330 CAVOK 31/21 Q1013

Closest aviation forecast (TAF) to Banfora Airport

Closest forecast is Bobo Dioulasso Airport, 36.6 nm (67.8 km) NE. Retrieved 2019/10/17 12:15 UTC (2 hours ago):

TAF DFOO 171100Z 1712/1812 22008KT 9999 FEW020 TEMPO 1716/1724 4000 TSRA SCT020 SCT033CB